Flight Track Log - Related Links

Times and Time Zones

All times are in EDT time to prevent confusion due to time zone crossing. See the CRQ907 flight status page for this flight to view local times or setup timezone preferences in your user account.

Time Position Orientation Groundspeed Altitude Reporting Facility
EDT Latitude Longitude Course Direction KTS MPH feet Rate Location/Type
Sun 08:21:48 AM 45.4500 -73.7500 325° Northwest 140 161 1,600  Level Montreal Center
Sun 08:22:48 AM 45.4833 -73.8000 314° West 150 173 3,300 1,600 Climbing Montreal Center
Sun 08:23:48 AM 45.5000 -73.8333 306° West 150 173 4,800 1,550 Climbing Montreal Center
Sun 08:24:48 AM 45.5167 -73.8833 295° West 140 161 6,400 1,550 Climbing Montreal Center
Sun 08:25:48 AM 45.5500 -73.9500 306° West 150 173 7,900 1,500 Climbing Montreal Center
Sun 08:26:00 AM 45.7002 -74.1836 325° Northwest  Level FlightAware Approximate
Sun 08:26:48 AM 45.5667 -74.0000 295° West 160 184 9,400  Level Montreal Center
Sun 08:27:48 AM 45.6000 -74.0500 314° West 160 184 10,800 1,400 Climbing Montreal Center
Sun 08:28:48 AM 45.6167 -74.1000 295° West 160 184 12,200 1,300 Climbing Montreal Center
Sun 08:29:48 AM 45.6500 -74.1667 306° West 160 184 13,400 1,200 Climbing Montreal Center
Sun 08:30:48 AM 45.6833 -74.2167 314° West 180 207 14,600 1,100 Climbing Montreal Center
Sun 08:31:48 AM 45.7167 -74.2667 314° West 180 207 15,600 700 Climbing Montreal Center
Sun 08:32:48 AM 45.7500 -74.3167 314° West 200 230 16,000 200 Climbing Montreal Center
Sun 08:33:48 AM 45.8000 -74.3833 317° Northwest 220 253 16,000  Level Montreal Center
Sun 08:34:48 AM 45.8500 -74.4333 325° Northwest 240 276 16,000  Level Montreal Center
Sun 08:35:48 AM 45.9000 -74.5000 317° Northwest 240 276 16,000  Level Montreal Center
Sun 08:36:48 AM 45.9333 -74.5667 306° West 250 288 16,000  Level Montreal Center
Sun 08:37:48 AM 46.0000 -74.6333 325° Northwest 250 288 16,000  Level Montreal Center
Sun 08:38:48 AM 46.0333 -74.7167 300° West 250 288 16,000  Level Montreal Center
Sun 08:39:48 AM 46.0833 -74.7833 317° Northwest 250 288 16,000  Level Montreal Center
Sun 08:40:48 AM 46.1333 -74.8500 317° Northwest 250 288 16,000  Level Montreal Center
Sun 08:41:48 AM 46.1833 -74.9333 311° West 250 288 16,000  Level Montreal Center
Sun 08:42:48 AM 46.2500 -75.0000 325° Northwest 250 288 16,000  Level Montreal Center
Sun 08:43:48 AM 46.3000 -75.0667 317° Northwest 250 288 16,000  Level Montreal Center
Sun 08:44:48 AM 46.3500 -75.1333 317° Northwest 250 288 16,000  Level Montreal Center
Sun 08:45:48 AM 46.4000 -75.2167 311° West 250 288 16,000  Level Montreal Center
Sun 08:46:48 AM 46.4500 -75.2833 317° Northwest 260 299 16,000  Level Montreal Center
Sun 08:47:48 AM 46.5000 -75.3500 317° Northwest 260 299 16,000  Level Montreal Center
Sun 08:48:48 AM 46.5500 -75.4333 311° West 260 299 16,000  Level Montreal Center
Sun 08:49:48 AM 46.6000 -75.5000 318° Northwest 260 299 16,000  Level Montreal Center
Sun 08:50:48 AM 46.6500 -75.5833 311° West 260 299 16,000  Level Montreal Center
Sun 08:51:48 AM 46.7167 -75.6500 326° Northwest 260 299 16,000  Level Montreal Center
Sun 08:52:48 AM 46.7667 -75.7167 318° Northwest 260 299 16,000  Level Montreal Center
Sun 08:53:48 AM 46.8167 -75.8000 311° West 260 299 16,000  Level Montreal Center
Sun 08:54:48 AM 46.8667 -75.8667 318° Northwest 260 299 16,000  Level Montreal Center
Sun 08:55:48 AM 46.9167 -75.9500 311° West 260 299 16,000  Level Montreal Center
Sun 08:56:48 AM 46.9667 -76.0167 318° Northwest 260 299 16,000  Level Montreal Center
Sun 08:57:48 AM 47.0167 -76.0833 318° Northwest 260 299 16,000  Level Montreal Center
Sun 08:58:48 AM 47.0667 -76.1667 311° West 260 299 16,000  Level Montreal Center
Sun 08:59:48 AM 47.1167 -76.2333 318° Northwest 260 299 16,000  Level Montreal Center
Sun 09:00:48 AM 47.1667 -76.3167 311° West 260 299 16,000  Level Montreal Center
Sun 09:01:48 AM 47.2167 -76.3833 318° Northwest 260 299 16,000 -50 Level Montreal Center
Sun 09:02:48 AM 47.2667 -76.4667 311° West 260 299 15,900 -50 Descending Montreal Center
Sun 09:03:48 AM 47.3167 -76.5333 318° Northwest 260 299 15,900  Level Montreal Center
Sun 09:04:48 AM 47.3833 -76.6333 315° West 260 299 15,900  Level Montreal Center
Sun 09:05:48 AM 47.4333 -76.7167 312° West 260 299 15,900  Level Montreal Center
Sun 09:06:48 AM 47.4833 -76.7833 318° Northwest 260 299 15,900  Level Montreal Center
Sun 09:07:48 AM 47.5333 -76.8667 312° West 260 299 15,900  Level Montreal Center
Sun 09:08:48 AM 47.5833 -76.9333 318° Northwest 260 299 15,900 -350 Level Montreal Center
Sun 09:09:48 AM 47.6167 -77.0167 301° West 260 299 15,200 -700 Descending Montreal Center
Sun 09:12:00 AM 47.6581 -77.1097 303° West  Level FlightAware Approximate
Sun 09:19:00 AM 47.8543 -77.6919 307° West  Level FlightAware Approximate
Sun 09:20:00 AM 47.9075 -77.7303 347° North  Level FlightAware Approximate
Sun 09:21:00 AM 47.9681 -77.7539 345° North  Level FlightAware Approximate
Sun 09:22:00 AM 48.0295 -77.7667 North  Level FlightAware Approximate
Sun 09:23:00 AM 48.0500 -77.7667 North  Level FlightAware Approximate
Sun 09:24:00 AM 48.0533 -77.7828 North  Level Estimated
Sun 09:25:00 AM 48.0533 -77.7828 North  Level Estimated
Sun 09:26:00 AM 48.0533 -77.7828 North  Level Estimated
Sun 09:27:00 AM 48.0533 -77.7828 North  Level Estimated
Sun 09:28:00 AM 48.0533 -77.7828 North  Level Estimated
Sun 09:29:00 AM 48.0533 -77.7828 North  Level Estimated

Login

Don't have an account? Register now (free) for customized features, flight alerts, and more!